Time;durP1;ratioP1;P1;durP2;ratioP2;P2;SDS_P1;SDS_P2;PMS_P1;PMS_P2;Temp;Humidity;BMP_temperature;BMP_pressure;BME280_temperature;BME280_humidity;BME280_pressure;Samples;Min_cycle;Max_cycle;Signal;HPM_P1;HPM_P2
2022/08/06 00:00:38;;;;;;;40.00;4.20;;;;;;;27.39;54.65;99944.00;7310371;19;129316;-39
2022/08/06 00:03:04;;;;;;;37.47;3.93;;;;;;;27.37;54.67;99950.44;7307470;19;129088;-34
2022/08/06 00:05:29;;;;;;;23.23;2.43;;;;;;;27.41;54.27;99957.03;7311592;19;129706;-40
2022/08/06 00:07:56;;;;;;;95.70;10.00;;;;;;;27.40;54.22;99966.78;7306680;19;129114;-40
2022/08/06 00:10:23;;;;;;;27.90;2.95;;;;;;;27.37;54.39;99976.84;7310327;19;130245;-38
2022/08/06 00:12:48;;;;;;;;;;;;;;;27.51;55.99;99965.59;7310958;19;129782;-37
2022/08/06 00:15:14;;;;;;;50.65;4.90;;;;;;;27.41;54.14;99978.16;7305552;19;130817;-34
2022/08/06 00:17:41;;;;;;;37.03;3.87;;;;;;;27.38;54.62;99968.75;7312406;19;128957;-32
2022/08/06 00:20:07;;;;;;;;;;;;;;;27.50;55.68;99953.38;7303325;19;129989;-37
2022/08/06 00:22:32;;;;;;;33.38;3.55;;;;;;;27.39;54.65;99948.44;7310703;19;129040;-36
2022/08/06 00:24:57;;;;;;;34.43;3.53;;;;;;;27.38;55.13;99957.38;7308338;19;130212;-35
2022/08/06 00:27:23;;;;;;;36.50;3.73;;;;;;;27.36;54.69;99972.53;7311731;19;130124;-38
2022/08/06 00:29:49;;;;;;;40.30;4.33;;;;;;;27.35;54.62;99969.09;7308685;19;130349;-33
2022/08/06 00:32:15;;;;;;;33.28;3.60;;;;;;;27.35;55.04;99953.25;7312515;19;130224;-33
2022/08/06 00:34:40;;;;;;;32.27;3.13;;;;;;;27.25;54.54;99942.03;7312154;19;130513;-32
2022/08/06 00:37:06;;;;;;;44.00;4.47;;;;;;;27.32;54.87;99948.28;7304751;19;130026;-34
2022/08/06 00:39:31;;;;;;;32.10;3.47;;;;;;;27.26;54.70;99942.81;7310779;19;129490;-37
2022/08/06 00:41:56;;;;;;;52.93;5.43;;;;;;;27.33;54.76;99959.69;7308515;19;130104;-36
2022/08/06 00:44:22;;;;;;;49.50;5.00;;;;;;;27.32;55.24;99969.41;7305514;19;130522;-35
2022/08/06 00:46:48;;;;;;;30.27;3.23;;;;;;;27.33;55.37;99949.13;7311873;19;129313;-35
2022/08/06 00:49:14;;;;;;;38.90;4.00;;;;;;;27.33;55.49;99949.13;7309330;19;129125;-36
2022/08/06 00:51:40;;;;;;;29.20;3.00;;;;;;;27.25;54.97;99920.06;7311719;19;130314;-37
2022/08/06 00:54:05;;;;;;;32.17;3.57;;;;;;;27.31;54.67;99909.69;7310071;19;130495;-33
2022/08/06 00:56:31;;;;;;;26.03;2.80;;;;;;;27.31;55.70;99909.69;7310241;19;128988;-32
2022/08/06 00:58:56;;;;;;;41.90;4.50;;;;;;;27.28;54.95;99888.06;7309893;19;129629;-35
2022/08/06 01:01:22;;;;;;;46.87;4.77;;;;;;;27.31;54.76;99893.00;7307337;19;129871;-37
2022/08/06 01:03:47;;;;;;;59.67;5.77;;;;;;;27.24;55.67;99892.03;7304374;19;129671;-34
2022/08/06 01:06:13;;;;;;;33.80;3.60;;;;;;;27.29;55.30;99953.09;7306973;19;129817;-33
2022/08/06 01:08:38;;;;;;;27.77;3.23;;;;;;;27.30;55.51;99952.09;7310705;19;130458;-34
2022/08/06 01:11:04;;;;;;;53.50;5.20;;;;;;;27.29;55.08;99953.91;7298923;19;130535;-37
2022/08/06 01:13:29;;;;;;;43.93;4.93;;;;;;;27.20;54.76;99948.78;7307444;19;131142;-36
2022/08/06 01:16:24;;;;;;;26.90;2.97;;;;;;;27.27;56.07;99981.47;7311357;19;129185;-33
2022/08/06 01:19:27;;;;;;;35.60;3.75;;;;;;;27.32;55.54;99971.25;7309716;19;129087;-39
2022/08/06 01:22:14;;;;;;;49.65;5.13;;;;;;;27.30;55.93;99975.88;7301622;19;130540;-38
2022/08/06 01:25:03;;;;;;;28.77;3.22;;;;;;;27.28;55.84;99981.31;7307388;19;129587;-35
2022/08/06 01:27:36;;;;;;;34.83;3.83;;;;;;;27.25;56.20;99984.28;7311093;19;129201;-33
2022/08/06 01:30:07;;;;;;;30.40;3.28;;;;;;;27.24;55.64;99985.25;7308181;19;129052;-37
2022/08/06 01:32:38;;;;;;;24.70;2.90;;;;;;;27.23;55.84;99996.81;7311122;19;129662;-32
2022/08/06 01:35:10;;;;;;;33.92;3.80;;;;;;;27.22;55.74;99999.63;7312340;19;129516;-35
2022/08/06 01:37:45;;;;;;;32.33;3.53;;;;;;;27.23;55.84;100006.53;7317629;19;129032;-35
2022/08/06 01:40:14;;;;;;;33.28;3.45;;;;;;;27.25;55.13;100009.84;7316354;19;130662;-33
2022/08/06 01:42:42;;;;;;;36.35;4.07;;;;;;;27.23;54.91;100004.72;7317070;19;129587;-36
2022/08/06 01:45:13;;;;;;;33.08;3.42;;;;;;;27.22;55.35;100010.19;7315369;19;129720;-38
2022/08/06 01:47:42;;;;;;;22.52;2.60;;;;;;;27.22;55.22;99999.63;7317205;19;129535;-35
2022/08/06 01:50:09;;;;;;;53.65;5.80;;;;;;;27.23;54.97;99995.97;7314099;19;129585;-37
2022/08/06 01:52:40;;;;;;;32.30;3.50;;;;;;;27.23;55.87;99991.53;7317048;19;129606;-32
2022/08/06 01:55:09;;;;;;;39.13;4.15;;;;;;;27.15;55.18;99977.50;7316160;19;129368;-38
2022/08/06 01:57:38;;;;;;;31.40;3.50;;;;;;;27.23;55.44;99998.59;7317273;19;129104;-36
2022/08/06 02:00:04;;;;;;;19.52;2.58;;;;;;;27.20;55.27;99994.50;7315585;19;130917;-34
2022/08/06 02:02:31;;;;;;;32.00;3.40;;;;;;;27.19;55.20;99995.47;7316821;19;129143;-38
2022/08/06 02:05:00;;;;;;;37.25;3.97;;;;;;;27.19;56.01;100005.22;7315114;19;129474;-32
2022/08/06 02:07:30;;;;;;;34.17;3.92;;;;;;;27.19;55.00;100005.22;7316414;19;129589;-35
2022/08/06 02:09:58;;;;;;;40.58;4.38;;;;;;;27.19;54.88;100006.03;7313756;19;131003;-33
2022/08/06 02:12:26;;;;;;;38.75;4.32;;;;;;;27.18;55.40;100003.56;7310477;19;129706;-33
2022/08/06 02:14:55;;;;;;;42.45;4.30;;;;;;;27.17;55.27;100009.84;7309463;19;129423;-36
2022/08/06 02:17:27;;;;;;;16.67;2.40;;;;;;;27.20;55.82;100012.16;7313621;19;130568;-35
2022/08/06 02:19:55;;;;;;;37.92;4.15;;;;;;;27.11;54.96;100005.19;7314306;19;130414;-37
2022/08/06 02:22:22;;;;;;;37.75;4.00;;;;;;;27.16;54.59;100022.22;7311202;19;131464;-34
2022/08/06 02:24:48;;;;;;;30.88;3.58;;;;;;;27.14;54.68;100023.38;7314943;19;130065;-37
2022/08/06 02:27:17;;;;;;;34.53;3.53;;;;;;;27.16;55.35;100019.56;7316668;19;129031;-34
2022/08/06 02:29:44;;;;;;;36.42;4.05;;;;;;;27.15;55.33;100031.13;7314534;19;129181;-40
2022/08/06 02:32:11;;;;;;;29.35;3.03;;;;;;;27.14;54.46;100020.75;7315888;19;129138;-34
2022/08/06 02:34:37;;;;;;;38.65;4.30;;;;;;;27.16;54.40;100022.22;7313400;19;130780;-37
2022/08/06 02:37:26;;;;;;;33.50;3.47;;;;;;;27.20;55.97;100025.34;7315157;19;129204;-33
2022/08/06 02:40:05;;;;;;;33.75;3.63;;;;;;;27.18;55.73;100029.97;7313044;19;129232;-32
2022/08/06 02:42:38;;;;;;;30.63;3.30;;;;;;;27.14;54.81;100039.22;7315698;19;130161;-35
2022/08/06 02:45:11;;;;;;;26.25;3.17;;;;;;;27.13;55.29;100032.28;7313066;19;129954;-39
2022/08/06 02:47:51;;;;;;;37.03;4.13;;;;;;;27.14;56.02;100039.22;7313372;19;128987;-37
2022/08/06 02:50:20;;;;;;;29.70;3.25;;;;;;;27.11;54.55;100044.81;7315273;19;129365;-35
2022/08/06 02:52:55;;;;;;;39.55;4.18;;;;;;;27.15;54.84;100046.13;7314841;19;129222;-38
2022/08/06 02:55:25;;;;;;;27.58;3.05;;;;;;;27.13;54.76;100054.22;7314496;19;129692;-36
2022/08/06 02:57:57;;;;;;;40.53;4.22;;;;;;;27.13;55.10;100061.31;7314334;19;128857;-32
2022/08/06 03:00:23;;;;;;;24.42;2.53;;;;;;;27.11;53.83;100065.91;7312990;19;129575;-38
2022/08/06 03:02:52;;;;;;;;;;;;;;;27.26;55.33;100069.56;7315424;19;130214;-34
2022/08/06 03:05:21;;;;;;;41.10;4.40;;;;;;;27.13;54.29;100071.88;7312306;19;129557;-33
2022/08/06 03:07:50;;;;;;;31.70;3.10;;;;;;;27.11;54.43;100085.22;7314019;19;129692;-34
2022/08/06 03:10:20;;;;;;;36.63;3.65;;;;;;;27.10;53.69;100093.31;7310987;19;129392;-38
2022/08/06 03:12:47;;;;;;;40.38;3.90;;;;;;;27.10;54.37;100088.03;7306913;19;130089;-40
2022/08/06 03:15:13;;;;;;;28.05;3.05;;;;;;;27.08;53.22;100084.72;7313216;19;132006;-39
2022/08/06 03:17:42;;;;;;;;;;;;;;;27.21;55.11;100091.19;7307627;19;130280;-40
2022/08/06 03:20:09;;;;;;;43.42;4.22;;;;;;;27.10;53.92;100106.50;7304207;19;129290;-36
2022/08/06 03:22:36;;;;;;;61.95;5.47;;;;;;;27.09;53.48;100104.88;7302849;19;131777;-34
2022/08/06 03:25:04;;;;;;;45.72;4.05;;;;;;;27.06;53.79;100106.00;7308733;19;129781;-32
2022/08/06 03:27:31;;;;;;;58.67;5.53;;;;;;;26.99;54.44;100110.28;7310309;19;129929;-38
2022/08/06 03:29:57;;;;;;;28.23;2.53;;;;;;;27.05;53.42;100120.22;7306379;19;131129;-34
2022/08/06 03:32:24;;;;;;;121.32;12.18;;;;;;;27.07;53.73;100127.97;7307788;19;130516;-40
2022/08/06 03:34:50;;;;;;;37.15;3.65;;;;;;;27.05;53.73;100129.94;7309834;19;129391;-37
2022/08/06 03:37:18;;;;;;;47.78;4.97;;;;;;;27.04;53.41;100133.56;7307156;19;129755;-36
2022/08/06 03:39:45;;;;;;;41.67;3.88;;;;;;;27.03;53.44;100131.91;7307860;19;129249;-39
2022/08/06 03:42:10;;;;;;;35.03;3.60;;;;;;;27.03;53.05;100131.91;7311172;19;129633;-40
2022/08/06 03:44:36;;;;;;;33.97;3.53;;;;;;;27.03;53.35;100148.56;7310955;19;129451;-40
2022/08/06 03:47:28;;;;;;;25.77;2.87;;;;;;;27.03;54.56;100153.00;7314889;19;129478;-40
2022/08/06 03:50:04;;;;;;;38.08;3.55;;;;;;;27.04;54.30;100165.25;7310574;19;130342;-40
2022/08/06 03:52:32;;;;;;;27.75;2.80;;;;;;;27.03;53.68;100169.69;7310718;19;133364;-38
2022/08/06 03:55:03;;;;;;;68.28;6.10;;;;;;;27.02;54.03;100170.69;7301642;19;131504;-39
2022/08/06 03:57:34;;;;;;;37.70;3.78;;;;;;;27.04;53.57;100170.53;7311673;19;129324;-38
2022/08/06 04:00:03;;;;;;;44.83;4.07;;;;;;;26.94;53.11;100173.28;7311806;19;129524;-40
2022/08/06 04:02:33;;;;;;;41.33;4.30;;;;;;;27.00;53.32;100185.84;7306462;19;130757;-40
2022/08/06 04:05:00;;;;;;;31.80;3.10;;;;;;;27.02;52.54;100185.69;7309453;19;129413;-39
2022/08/06 04:07:28;;;;;;;116.57;11.70;;;;;;;26.93;52.58;100176.91;7301520;19;129811;-39
2022/08/06 04:09:54;;;;;;;19.92;2.33;;;;;;;26.92;53.03;100177.91;7304175;19;131158;-41
2022/08/06 04:12:21;;;;;;;33.33;3.40;;;;;;;27.00;52.40;100190.28;7311824;19;129075;-34
2022/08/06 04:14:47;;;;;;;43.15;4.65;;;;;;;27.01;53.22;100189.31;7309826;19;131368;-40
2022/08/06 04:17:13;;;;;;;27.05;3.00;;;;;;;27.00;52.77;100195.56;7312055;19;130360;-40
2022/08/06 04:19:39;;;;;;;;;;;;;;;27.10;53.81;100194.47;7309842;19;130873;-33
2022/08/06 04:22:05;;;;;;;45.63;4.43;;;;;;;27.00;52.54;100195.56;7306490;19;131336;-35
2022/08/06 04:24:30;;;;;;;44.83;4.13;;;;;;;27.01;53.28;100202.53;7298529;19;131310;-34
2022/08/06 04:27:00;;;;;;;34.07;3.13;;;;;;;26.98;52.80;100202.81;7309334;19;129461;-41
2022/08/06 04:29:26;;;;;;;40.65;4.00;;;;;;;26.98;52.51;100197.53;7310112;19;129473;-39
2022/08/06 04:31:52;;;;;;;33.88;3.22;;;;;;;26.97;52.35;100211.72;7312795;19;130241;-37
2022/08/06 04:34:23;;;;;;;32.40;3.33;;;;;;;26.94;52.96;100208.41;7312514;19;129220;-39
2022/08/06 04:36:49;;;;;;;43.88;4.10;;;;;;;26.96;52.89;100210.09;7305889;19;129154;-41
2022/08/06 04:39:16;;;;;;;36.58;3.50;;;;;;;26.98;51.86;100218.66;7312172;19;129153;-39
2022/08/06 04:41:42;;;;;;;47.38;4.50;;;;;;;26.98;52.57;100223.94;7302534;19;130912;-37
2022/08/06 04:44:08;;;;;;;46.23;4.33;;;;;;;26.94;52.08;100229.53;7304820;19;130492;-37
2022/08/06 04:46:33;;;;;;;31.33;2.63;;;;;;;26.96;51.68;100229.38;7306722;19;129089;-39
2022/08/06 04:48:59;;;;;;;32.23;3.27;;;;;;;26.93;52.08;100225.25;7310492;19;129154;-39
2022/08/06 04:51:24;;;;;;;44.30;4.27;;;;;;;26.86;51.94;100220.75;7310327;19;129524;-41
2022/08/06 04:53:50;;;;;;;58.10;5.43;;;;;;;26.97;52.25;100232.84;7303987;19;130435;-39
2022/08/06 04:56:15;;;;;;;57.60;5.07;;;;;;;26.93;51.90;100238.44;7301215;19;130275;-40
2022/08/06 04:58:40;;;;;;;69.10;5.93;;;;;;;26.93;52.17;100243.72;7299120;19;129422;-34
2022/08/06 05:01:06;;;;;;;68.33;6.07;;;;;;;26.93;51.48;100246.38;7293863;19;130144;-39
2022/08/06 05:03:32;;;;;;;45.70;4.27;;;;;;;26.92;51.21;100247.31;7299599;19;129526;-36
2022/08/06 05:06:08;;;;;;;114.00;9.33;;;;;;;26.86;52.97;100240.06;7298929;19;131041;-36
2022/08/06 05:08:38;;;;;;;46.03;4.15;;;;;;;26.87;51.95;100254.88;7293770;19;129645;-35
2022/08/06 05:11:35;;;;;;;67.88;6.13;;;;;;;26.94;52.90;100255.91;7305789;19;129847;-34
2022/08/06 05:14:08;;;;;;;47.13;4.55;;;;;;;26.89;52.60;100263.47;7303890;19;130425;-35
2022/08/06 05:16:38;;;;;;;41.97;3.92;;;;;;;26.87;52.68;100260.16;7312995;19;130158;-34
2022/08/06 05:19:05;;;;;;;57.45;4.93;;;;;;;26.87;52.60;100264.63;7304024;19;129418;-35
2022/08/06 05:21:35;;;;;;;65.07;5.88;;;;;;;26.85;52.77;100262.16;7307950;19;129791;-38
2022/08/06 05:24:02;;;;;;;59.95;5.50;;;;;;;26.86;51.84;100269.09;7307925;19;130380;-41
2022/08/06 05:26:29;;;;;;;38.53;3.55;;;;;;;26.85;51.86;100271.88;7312783;19;129573;-37
2022/08/06 05:28:54;;;;;;;155.30;14.63;;;;;;;26.84;50.80;100265.75;7299914;19;129639;-33
2022/08/06 05:31:39;;;;;;;77.47;6.60;;;;;;;26.87;53.24;100270.72;7301234;19;130315;-36
2022/08/06 05:34:09;;;;;;;42.10;4.10;;;;;;;26.75;52.33;100263.25;7311692;19;130699;-38
2022/08/06 05:36:35;;;;;;;38.75;3.67;;;;;;;26.83;51.29;100273.84;7315313;19;129150;-37
2022/08/06 05:39:01;;;;;;;22.57;2.50;;;;;;;26.84;51.95;100276.31;7316957;19;129931;-36
2022/08/06 05:41:28;;;;;;;87.40;7.30;;;;;;;26.85;51.37;100283.28;7298424;19;131149;-36
2022/08/06 05:43:54;;;;;;;141.38;14.35;;;;;;;26.80;51.32;100284.72;7297512;19;131093;-37
2022/08/06 05:46:21;;;;;;;81.57;7.50;;;;;;;26.83;51.56;100285.22;7303402;19;129959;-38
2022/08/06 05:48:59;;;;;;;51.65;4.28;;;;;;;26.84;53.11;100289.50;7307097;19;129519;-34
2022/08/06 05:51:33;;;;;;;62.28;6.03;;;;;;;26.82;52.29;100299.41;7300839;19;129985;-37
2022/08/06 05:54:09;;;;;;;26.85;2.67;;;;;;;26.79;51.82;100297.06;7313938;19;130234;-33
2022/08/06 05:56:40;;;;;;;43.97;3.97;;;;;;;26.78;51.94;100298.06;7314835;19;129096;-35
2022/08/06 05:59:25;;;;;;;31.58;3.10;;;;;;;26.82;52.85;100301.22;7312622;19;129928;-35
2022/08/06 06:01:51;;;;;;;33.00;3.13;;;;;;;26.78;50.60;100299.88;7316531;19;129239;-34
2022/08/06 06:04:18;;;;;;;36.03;3.37;;;;;;;26.79;51.03;100304.97;7316022;19;130429;-36
2022/08/06 06:06:44;;;;;;;46.35;4.07;;;;;;;26.79;51.61;100304.19;7316105;19;131203;-39
2022/08/06 06:09:10;;;;;;;28.67;2.60;;;;;;;26.82;50.65;100303.88;7316042;19;129618;-33
2022/08/06 06:11:37;;;;;;;42.67;3.70;;;;;;;26.81;50.88;100297.75;7316612;19;129200;-34
2022/08/06 06:14:02;;;;;;;25.90;2.40;;;;;;;26.80;51.53;100305.81;7313303;19;129195;-34
2022/08/06 06:16:35;;;;;;;29.10;2.80;;;;;;;26.79;52.29;100304.97;7315698;19;129884;-33
2022/08/06 06:19:33;;;;;;;38.08;3.47;;;;;;;26.82;53.04;100299.41;7313883;19;130010;-35
2022/08/06 06:22:17;;;;;;;41.25;3.80;;;;;;;26.85;51.25;100317.56;7312711;19;129504;-35
2022/08/06 06:24:50;;;;;;;26.73;2.70;;;;;;;26.80;51.96;100304.03;7314720;19;130436;-36
2022/08/06 06:27:33;;;;;;;29.05;2.83;;;;;;;26.82;52.87;100309.16;7315251;19;128747;-41
2022/08/06 06:30:09;;;;;;;21.63;2.05;;;;;;;26.88;52.31;100332.25;7314508;19;129069;-36
2022/08/06 06:33:02;;;;;;;66.63;6.70;;;;;;;26.89;52.74;100331.28;7314058;19;129059;-36
2022/08/06 06:35:56;;;;;;;34.03;3.53;;;;;;;26.86;52.40;100337.69;7313836;19;129718;-37
2022/08/06 06:38:46;;;;;;;31.65;2.88;;;;;;;26.89;53.28;100332.09;7315518;19;129521;-32
2022/08/06 06:41:21;;;;;;;45.60;4.18;;;;;;;26.85;52.82;100324.66;7315012;19;129512;-34
2022/08/06 06:44:00;;;;;;;27.63;2.90;;;;;;;26.77;52.96;100328.09;7316268;19;131348;-32
2022/08/06 06:46:39;;;;;;;46.40;4.50;;;;;;;26.83;53.35;100337.16;7310997;19;130320;-35
2022/08/06 06:49:41;;;;;;;28.08;2.75;;;;;;;26.87;53.68;100339.34;7314240;19;129476;-33
2022/08/06 06:52:28;;;;;;;35.58;3.22;;;;;;;26.88;53.46;100345.44;7315009;19;128960;-34
2022/08/06 06:55:01;;;;;;;15.20;1.52;;;;;;;26.85;52.56;100345.75;7314303;19;129519;-38
2022/08/06 06:57:32;;;;;;;23.30;2.30;;;;;;;26.81;53.31;100344.41;7316178;19;129317;-34
2022/08/06 07:00:01;;;;;;;67.50;6.60;;;;;;;26.72;53.23;100340.91;7308820;19;131316;-44
2022/08/06 07:02:31;;;;;;;32.65;3.15;;;;;;;26.79;53.69;100360.41;7298889;19;132997;-33
2022/08/06 07:05:00;;;;;;;79.10;8.32;;;;;;;26.83;52.74;100359.13;7302711;19;131226;-37
2022/08/06 07:07:29;;;;;;;38.17;3.53;;;;;;;26.85;53.41;100362.44;7312099;19;130464;-35
2022/08/06 07:09:55;;;;;;;42.35;4.38;;;;;;;26.85;52.19;100353.69;7309695;19;129862;-41
2022/08/06 07:12:22;;;;;;;26.27;2.30;;;;;;;26.86;52.74;100352.69;7315594;19;129625;-32
2022/08/06 07:14:52;;;;;;;45.08;4.55;;;;;;;26.88;53.21;100351.56;7309999;19;129324;-35
2022/08/06 07:17:18;;;;;;;17.55;1.70;;;;;;;26.81;52.76;100355.81;7311057;19;130124;-38
2022/08/06 07:19:46;;;;;;;28.52;2.75;;;;;;;26.83;53.35;100353.84;7309711;19;130960;-33
2022/08/06 07:22:13;;;;;;;15.82;1.70;;;;;;;26.82;52.51;100356.63;7313765;19;129733;-34
2022/08/06 07:24:41;;;;;;;;;;;;;;;26.94;53.86;100350.94;7315307;19;129588;-33
2022/08/06 07:27:08;;;;;;;34.47;2.97;;;;;;;26.74;52.87;100346.84;7306372;19;129594;-32
2022/08/06 07:29:35;;;;;;;31.27;2.95;;;;;;;26.79;52.86;100341.94;7311211;19;130719;-35
2022/08/06 07:32:01;;;;;;;81.88;8.30;;;;;;;26.83;53.43;100364.41;7306996;19;129468;-38
2022/08/06 07:34:26;;;;;;;23.55;2.20;;;;;;;26.80;53.11;100364.72;7307924;19;129809;-40
2022/08/06 07:36:54;;;;;;;27.63;2.90;;;;;;;26.80;53.12;100369.16;7314986;19;129141;-38
2022/08/06 07:39:33;;;;;;;11.07;1.27;;;;;;;26.83;53.79;100361.75;7310942;19;129409;-33
2022/08/06 07:42:01;;;;;;;25.30;2.38;;;;;;;26.78;53.22;100371.94;7312682;19;130832;-33
2022/08/06 07:44:29;;;;;;;17.52;1.83;;;;;;;26.79;52.88;100365.66;7313691;19;129792;-35
2022/08/06 07:46:58;;;;;;;21.98;2.20;;;;;;;26.77;53.25;100367.66;7312594;19;129200;-36
2022/08/06 07:49:36;;;;;;;21.58;2.20;;;;;;;26.76;53.62;100368.63;7310378;19;130427;-34
2022/08/06 07:52:02;;;;;;;21.73;2.13;;;;;;;26.77;52.69;100369.47;7313743;19;129371;-36
2022/08/06 07:54:30;;;;;;;19.50;1.85;;;;;;;26.81;53.07;100371.63;7313097;19;130236;-34
2022/08/06 07:56:56;;;;;;;29.63;2.95;;;;;;;26.77;53.34;100365.03;7311352;19;129592;-32
2022/08/06 07:59:24;;;;;;;43.85;4.07;;;;;;;26.76;53.24;100373.91;7301590;19;130180;-40
2022/08/06 08:01:50;;;;;;;30.10;2.75;;;;;;;26.78;52.84;100376.38;7310178;19;129040;-37
2022/08/06 08:07:02;;;;;;;26.52;2.40;;;;;;;26.78;53.22;100382.50;7313132;19;129426;-35
2022/08/06 08:09:29;;;;;;;18.15;1.77;;;;;;;26.78;53.60;100382.50;7313314;19;129087;-36
2022/08/06 08:11:55;;;;;;;26.70;2.28;;;;;;;26.81;53.11;100378.72;7310700;19;130156;-32
2022/08/06 08:14:22;;;;;;;30.57;2.83;;;;;;;26.79;53.72;100365.66;7310614;19;129222;-32
2022/08/06 08:16:48;;;;;;;27.83;2.58;;;;;;;26.78;53.09;100382.50;7312369;19;130140;-35
2022/08/06 08:19:21;;;;;;;32.55;3.10;;;;;;;26.79;53.71;100378.06;7310374;19;129417;-34
2022/08/06 08:21:47;;;;;;;19.38;1.80;;;;;;;26.78;53.07;100382.50;7312956;19;130267;-31
2022/08/06 08:24:13;;;;;;;33.60;3.33;;;;;;;26.81;53.96;100381.34;7313266;19;129557;-35
2022/08/06 08:26:38;;;;;;;7.45;0.95;;;;;;;26.84;52.94;100381.88;7311038;19;129261;-35
2022/08/06 08:29:04;;;;;;;27.70;2.63;;;;;;;26.83;53.56;100376.75;7308799;19;128995;-36
2022/08/06 08:31:30;;;;;;;45.50;4.23;;;;;;;26.83;52.96;100380.22;7311528;19;129694;-30
2022/08/06 08:33:55;;;;;;;34.20;3.30;;;;;;;26.82;53.79;100381.19;7309965;19;131066;-34
2022/08/06 08:36:23;;;;;;;33.00;3.13;;;;;;;26.78;53.23;100369.31;7309945;19;130160;-33
2022/08/06 08:38:48;;;;;;;27.17;2.45;;;;;;;26.83;53.21;100376.75;7312573;19;129111;-37
2022/08/06 08:41:21;;;;;;;34.60;3.17;;;;;;;26.84;54.12;100376.59;7304338;19;129547;-31
2022/08/06 08:43:53;;;;;;;22.52;2.15;;;;;;;26.81;54.12;100381.34;7310374;19;129890;-36
2022/08/06 08:46:19;;;;;;;22.23;2.35;;;;;;;26.85;52.40;100378.28;7307970;19;130355;-35
2022/08/06 08:48:46;;;;;;;43.63;3.63;;;;;;;26.83;50.88;100369.66;7312319;19;129049;-35
2022/08/06 08:51:12;;;;;;;;;;;;;;;26.99;52.28;100368.13;7310984;19;129887;-33
2022/08/06 08:53:45;;;;;;;55.17;4.57;;;;;;;26.89;47.35;100379.59;7306998;19;129866;-36
2022/08/06 08:56:12;;;;;;;43.47;3.85;;;;;;;26.80;51.00;100390.25;7306092;19;129611;-43
2022/08/06 08:58:41;;;;;;;60.47;5.22;;;;;;;26.80;52.09;100391.09;7302161;19;129672;-33
2022/08/06 09:01:08;;;;;;;35.53;3.20;;;;;;;26.86;52.01;100387.00;7303333;19;130413;-38
2022/08/06 09:03:37;;;;;;;35.80;3.40;;;;;;;26.82;52.17;100383.84;7304981;19;129801;-35
2022/08/06 09:06:03;;;;;;;30.08;2.72;;;;;;;26.85;51.92;100391.47;7300870;19;129975;-32
2022/08/06 09:08:31;;;;;;;27.65;2.53;;;;;;;26.86;52.48;100385.19;7309467;19;129662;-39
2022/08/06 09:10:56;;;;;;;17.75;1.77;;;;;;;26.86;51.78;100387.84;7308415;19;129183;-36
2022/08/06 09:13:24;;;;;;;42.23;4.00;;;;;;;26.82;53.39;100377.75;7310749;19;130384;-35
2022/08/06 09:15:51;;;;;;;47.53;4.40;;;;;;;26.89;52.83;100379.59;7308357;19;131129;-34
2022/08/06 09:18:16;;;;;;;;;;;;;;;27.00;53.75;100385.59;7304843;19;129337;-35
2022/08/06 09:20:42;;;;;;;60.03;5.13;;;;;;;26.93;52.41;100380.97;7301166;19;129233;-37
2022/08/06 09:23:07;;;;;;;49.33;4.33;;;;;;;26.91;52.67;100382.09;7305815;19;129408;-36
2022/08/06 09:25:39;;;;;;;20.97;2.27;;;;;;;26.90;53.75;100381.28;7309876;19;129720;-31
2022/08/06 09:28:26;;;;;;;22.60;2.20;;;;;;;26.93;54.61;100375.69;7307537;19;129213;-32
2022/08/06 09:30:59;;;;;;;16.07;1.73;;;;;;;26.90;54.01;100381.28;7308393;19;129003;-35
2022/08/06 09:33:24;;;;;;;28.45;2.60;;;;;;;26.86;53.40;100379.91;7307689;19;130939;-35
2022/08/06 09:36:02;;;;;;;42.73;3.80;;;;;;;26.85;53.85;100364.25;7309192;19;129745;-37
2022/08/06 09:38:28;;;;;;;38.40;3.60;;;;;;;26.84;53.20;100366.03;7306459;19;129240;-38
2022/08/06 09:41:03;;;;;;;33.38;3.10;;;;;;;26.94;54.42;100377.31;7307079;19;130436;-34
2022/08/06 09:43:28;;;;;;;35.28;3.45;;;;;;;26.94;52.81;100377.31;7306639;19;129518;-32
2022/08/06 09:45:54;;;;;;;22.63;2.20;;;;;;;26.74;47.96;100386.41;7306865;19;130907;-35
2022/08/06 09:48:19;;;;;;;38.70;3.53;;;;;;;26.64;50.52;100375.09;7306954;19;130665;-31
2022/08/06 09:50:46;;;;;;;32.13;3.03;;;;;;;26.76;52.70;100379.19;7306440;19;129307;-36
2022/08/06 09:53:13;;;;;;;34.70;3.20;;;;;;;26.80;52.31;100380.53;7307351;19;130066;-32
2022/08/06 09:55:38;;;;;;;;;;;;;;;26.96;53.77;100373.72;7310528;19;130059;-34
2022/08/06 09:58:03;;;;;;;22.17;2.58;;;;;;;26.89;52.21;100373.50;7315360;19;129493;-33
2022/08/06 10:00:32;;;;;;;17.70;1.67;;;;;;;26.89;52.83;100378.78;7312644;19;128891;-34
2022/08/06 10:03:09;;;;;;;22.65;2.42;;;;;;;26.90;53.88;100365.44;7314924;19;130207;-35
2022/08/06 10:05:35;;;;;;;32.65;2.90;;;;;;;26.91;53.18;100375.00;7314420;19;129657;-36
2022/08/06 10:08:05;;;;;;;30.80;2.77;;;;;;;26.91;52.82;100367.09;7315846;19;129358;-40
2022/08/06 10:11:02;;;;;;;15.68;1.70;;;;;;;26.96;54.64;100368.44;7313643;19;128945;-37
2022/08/06 10:13:29;;;;;;;16.40;1.65;;;;;;;26.93;53.92;100359.00;7316441;19;130476;-35
2022/08/06 10:15:55;;;;;;;;;;;;;;;27.04;53.87;100364.00;7317608;19;129709;-34
2022/08/06 10:18:38;;;;;;;31.80;2.92;;;;;;;26.98;54.79;100366.44;7315539;19;129282;-38
2022/08/06 10:21:08;;;;;;;28.08;2.55;;;;;;;26.89;54.13;100352.41;7314132;19;129297;-36
2022/08/06 10:23:38;;;;;;;56.30;4.90;;;;;;;26.93;53.48;100361.66;7315827;19;130173;-34
2022/08/06 10:26:06;;;;;;;15.55;1.63;;;;;;;26.92;53.63;100363.44;7314966;19;131180;-39
2022/08/06 10:28:34;;;;;;;8.07;0.95;;;;;;;26.91;53.58;100355.69;7316488;19;128805;-34
2022/08/06 10:31:02;;;;;;;25.20;2.30;;;;;;;26.84;54.10;100331.72;7313963;19;129327;-39
2022/08/06 10:33:33;;;;;;;23.73;2.17;;;;;;;26.93;54.27;100349.28;7315979;19;129380;-36
2022/08/06 10:36:04;;;;;;;19.48;1.95;;;;;;;26.93;54.43;100349.28;7315506;19;129603;-36
2022/08/06 10:38:34;;;;;;;23.80;2.40;;;;;;;26.53;48.66;100341.06;7315927;19;129043;-37
2022/08/06 10:41:02;;;;;;;25.70;2.22;;;;;;;26.41;50.39;100342.28;7313636;19;129321;-32
2022/08/06 10:43:29;;;;;;;13.93;1.35;;;;;;;26.70;53.60;100352.59;7315492;19;129519;-36
2022/08/06 10:45:55;;;;;;;38.30;3.35;;;;;;;26.77;53.38;100333.38;7314443;19;130286;-34
2022/08/06 10:48:21;;;;;;;15.80;1.63;;;;;;;26.85;53.13;100343.97;7317501;19;129003;-34
2022/08/06 10:50:47;;;;;;;33.03;3.03;;;;;;;26.87;52.88;100334.06;7313127;19;129588;-35
2022/08/06 10:53:12;;;;;;;16.83;1.57;;;;;;;26.89;53.68;100342.66;7315908;19;129063;-40
2022/08/06 10:55:38;;;;;;;32.57;2.83;;;;;;;26.89;53.13;100340.00;7316043;19;130449;-35
2022/08/06 10:58:04;;;;;;;23.67;2.57;;;;;;;26.91;53.95;100338.06;7316436;19;128753;-37
2022/08/06 11:00:33;;;;;;;21.20;1.92;;;;;;;26.90;53.96;100336.41;7314109;19;129452;-35
2022/08/06 11:03:15;;;;;;;26.15;2.38;;;;;;;26.96;54.47;100334.13;7314897;19;129336;-39
2022/08/06 11:05:44;;;;;;;19.90;1.90;;;;;;;26.93;54.25;100325.53;7314198;19;130273;-34
2022/08/06 11:08:38;;;;;;;55.58;5.28;;;;;;;26.97;54.63;100331.34;7312319;19;128960;-36
2022/08/06 11:11:12;;;;;;;46.95;3.90;;;;;;;26.93;54.28;100322.91;7312789;19;128962;-33
2022/08/06 11:14:10;;;;;;;44.53;3.88;;;;;;;26.93;52.88;100322.91;7313416;19;131356;-34
2022/08/06 11:16:37;;;;;;;44.60;3.75;;;;;;;26.94;54.01;100319.25;7312207;19;129643;-36
2022/08/06 11:19:10;;;;;;;10.25;1.00;;;;;;;26.97;54.86;100327.84;7315166;19;128979;-34
2022/08/06 11:21:45;;;;;;;14.20;1.55;;;;;;;26.97;54.83;100312.03;7315098;19;129359;-32
2022/08/06 11:24:12;;;;;;;27.88;2.60;;;;;;;26.96;54.75;100311.19;7314187;19;129205;-36
2022/08/06 11:26:40;;;;;;;21.27;1.92;;;;;;;26.94;54.49;100328.97;7312043;19;129320;-35